Ivs Sunbird — 9V3262 — position and weather

sailwx.info

Track history (hours):
 
Tides and Currents Weather Stations Pressure Air Temp Water Temp Dewpoint Dewpoint Depression Visibility Wind Speed Wind Dir Waves Ship Positions

Ivs Sunbird

Last reported at 2018-Feb-21 05:00 UTC. Time now 2018-Feb-21 05:27 UTC.
Position S 33°04' E 151°53'.

Length 177 m; draft 7.8 m.

Type: Cargo ship. MMSI: 563475000.

Date/timePositionNaut miles runAvg speedWind from/ knotsBaromVisibWave heightAir tempDewpointWater temp
2018-Feb-21 05:00S 33°04' E 151°53'1 1.8
2018-Feb-21 04:30S 33°04' E 151°54'1 2.0
2018-Feb-21 04:00S 33°04' E 151°56'1 2.0
2018-Feb-21 03:30S 33°03' E 151°57'1 1.7
2018-Feb-21 03:00S 33°03' E 151°58'1 1.9
2018-Feb-21 02:30S 33°03' E 151°59'1 1.7
2018-Feb-21 02:00S 33°03' E 151°60'1 1.8
2018-Feb-21 01:30S 33°03' E 152°01'1 1.7
2018-Feb-21 01:00S 33°03' E 152°02'1 1.7
2018-Feb-21 00:30S 33°03' E 152°03'1 1.2
2018-Feb-20 23:59S 33°03' E 152°04'2 3.6
2018-Feb-20 23:30S 33°01' E 152°02'4 7.2
2018-Feb-20 23:00S 32°59' E 151°59'0 0.6
2018-Feb-20 22:30S 32°59' E 151°60'0 0.9
2018-Feb-20 22:00S 32°59' E 152°00'0 0.9
2018-Feb-20 21:30S 32°59' E 152°01'0 0.9
2018-Feb-20 21:00S 32°59' E 152°01'0 1.0
2018-Feb-20 20:30S 32°59' E 152°02'0 0.9
2018-Feb-20 20:00S 32°60' E 152°02'0 0.8
2018-Feb-20 19:30S 32°60' E 152°03'0 0.9
2018-Feb-20 19:00S 33°00' E 152°03'0 0.8
2018-Feb-20 18:30S 33°00' E 152°04'0 0.5
2018-Feb-20 18:00S 33°00' E 152°03'3 5.5
2018-Feb-20 17:30S 32°59' E 152°00'1 1.0
2018-Feb-20 17:00S 32°59' E 151°60'0 0.5
2018-Feb-20 16:30S 32°59' E 151°60'0 0.9
2018-Feb-20 16:00S 32°59' E 151°59'0 0.8
2018-Feb-20 15:30S 32°59' E 151°60'0 0.6
2018-Feb-20 15:00S 32°59' E 152°00'0 0.6
2018-Feb-20 14:30S 32°59' E 152°00'0 0.9
2018-Feb-20 14:00S 32°59' E 152°01'3 5.8
2018-Feb-20 13:30S 32°56' E 151°60'611.1
2018-Feb-20 13:00S 32°55' E 152°06'611.2
2018-Feb-20 12:30S 32°55' E 152°13'510.8
2018-Feb-20 12:00S 32°54' E 152°19'5 9.9
2018-Feb-20 11:30S 32°52' E 152°25'5 9.6
2018-Feb-20 11:00S 32°49' E 152°29'5 9.1
2018-Feb-20 10:30S 32°46' E 152°33'5 9.4
2018-Feb-20 10:00S 32°43' E 152°38'5 9.5
2018-Feb-20 09:30S 32°40' E 152°42'510.0
2018-Feb-20 09:00S 32°37' E 152°46'510.0
2018-Feb-20 08:30S 32°34' E 152°51'24010.8
2018-Feb-19 10:12S 28°41' E 153°56'411.3
2018-Feb-19 09:49S 28°36' E 153°56'411.3
2018-Feb-19 09:30S 28°33' E 153°56'611.3
2018-Feb-19 09:00S 28°27' E 153°56'611.4
2018-Feb-19 08:30S 28°21' E 153°56'611.7
2018-Feb-19 08:00S 28°15' E 153°55'611.7
2018-Feb-19 07:30S 28°10' E 153°55'611.6
2018-Feb-19 07:00S 28°04' E 153°54'611.8
2018-Feb-19 06:30S 27°58' E 153°53'612.0
2018-Feb-19 06:00S 27°52' E 153°51'611.4
2018-Feb-19 05:30S 27°47' E 153°50'611.4
2018-Feb-19 05:00S 27°41' E 153°49'711.7
2018-Feb-19 04:24S 27°34' E 153°48'511.7
2018-Feb-19 03:59S 27°29' E 153°47'511.1
2018-Feb-19 03:30S 27°24' E 153°47'510.7
2018-Feb-19 03:00S 27°19' E 153°46'1310.1
2018-Feb-19 01:46S 27°06' E 153°44'23 3.2
2018-Feb-18 18:26S 27°14' E 153°20'713.9
2018-Feb-18 17:58S 27°17' E 153°14'613.1
2018-Feb-18 17:30S 27°23' E 153°10'4 6.8
2018-Feb-18 16:56S 27°26' E 153°07'0 0.0
2018-Feb-17 17:39S 27°26' E 153°07'0 0.0
2018-Feb-17 17:09S 27°26' E 153°07'0 0.0
2018-Feb-17 16:39S 27°26' E 153°07'0 0.0
2018-Feb-17 14:36S 27°26' E 153°07'0 0.0
2018-Feb-17 14:24S 27°26' E 153°07'0 0.0
2018-Feb-16 20:26S 27°26' E 153°07'0 0.0
2018-Feb-16 19:59S 27°26' E 153°07'0 0.0
2018-Feb-16 13:49S 27°26' E 153°07'0 1.0
2018-Feb-16 13:28S 27°26' E 153°08'3 5.4
2018-Feb-16 12:51S 27°23' E 153°10'710.3
2018-Feb-16 12:13S 27°17' E 153°14'412.5
2018-Feb-16 11:53S 27°15' E 153°18'35 0.9
2018-Feb-14 20:44S 26°41' E 153°15'0 0.0
2018-Feb-14 20:29S 26°41' E 153°15'0 0.0
2018-Feb-14 19:57S 26°41' E 153°15'0 0.0
2018-Feb-14 19:21S 26°41' E 153°15'0 0.0
2018-Feb-14 18:59S 26°41' E 153°15'0 0.0
2018-Feb-14 18:26S 26°41' E 153°15'0 0.0
2018-Feb-14 17:56S 26°41' E 153°15'0 0.0
2018-Feb-14 17:24S 26°41' E 153°15'0 0.0
2018-Feb-14 16:50S 26°41' E 153°15'0 0.0
2018-Feb-14 16:23S 26°41' E 153°15'0 0.0
2018-Feb-14 05:32S 26°41' E 153°15'0 1.0
2018-Feb-14 05:16S 26°41' E 153°15'1 5.2
2018-Feb-14 05:00S 26°39' E 153°16'2710.9
2018-Feb-14 02:33S 26°14' E 153°24'110.3
2018-Feb-14 02:29S 26°13' E 153°24'611.4
2018-Feb-14 02:00S 26°08' E 153°26'33210.9
2018-Feb-12 19:32S 21°24' E 150°18'1211.7
2018-Feb-12 18:29S 21°15' E 150°09'2611.6
2018-Feb-12 16:14S 20°54' E 149°52'511.4
2018-Feb-12 15:48S 20°51' E 149°48'711.3
2018-Feb-12 15:11S 20°45' E 149°43'311.6
2018-Feb-12 14:56S 20°43' E 149°42'2511.3
2018-Feb-12 12:41S 20°24' E 149°24'511.7
2018-Feb-12 12:14S 20°19' E 149°20'  
Track history (hours):
 
Tides and Currents Weather Stations Pressure Air Temp Water Temp Dewpoint Dewpoint Depression Visibility Wind Speed Wind Dir Waves Ship Positions

Ivs Sunbird

Last reported at 2018-Feb-21 05:00 UTC. Time now 2018-Feb-21 05:27 UTC.
Position S 33°04' E 151°53'.

Length 177 m; draft 7.8 m.

Type: Cargo ship. MMSI: 563475000.

Date/timePositionNaut miles runAvg speedWind from/ knotsBaromVisibWave heightAir tempDewpointWater temp
2018-Feb-21 05:00S 33°04' E 151°53'1 1.8
2018-Feb-21 04:30S 33°04' E 151°54'1 2.0
2018-Feb-21 04:00S 33°04' E 151°56'1 2.0
2018-Feb-21 03:30S 33°03' E 151°57'1 1.7
2018-Feb-21 03:00S 33°03' E 151°58'1 1.9
2018-Feb-21 02:30S 33°03' E 151°59'1 1.7
2018-Feb-21 02:00S 33°03' E 151°60'1 1.8
2018-Feb-21 01:30S 33°03' E 152°01'1 1.7
2018-Feb-21 01:00S 33°03' E 152°02'1 1.7
2018-Feb-21 00:30S 33°03' E 152°03'1 1.2
2018-Feb-20 23:59S 33°03' E 152°04'2 3.6
2018-Feb-20 23:30S 33°01' E 152°02'4 7.2
2018-Feb-20 23:00S 32°59' E 151°59'0 0.6
2018-Feb-20 22:30S 32°59' E 151°60'0 0.9
2018-Feb-20 22:00S 32°59' E 152°00'0 0.9
2018-Feb-20 21:30S 32°59' E 152°01'0 0.9
2018-Feb-20 21:00S 32°59' E 152°01'0 1.0
2018-Feb-20 20:30S 32°59' E 152°02'0 0.9
2018-Feb-20 20:00S 32°60' E 152°02'0 0.8
2018-Feb-20 19:30S 32°60' E 152°03'0 0.9
2018-Feb-20 19:00S 33°00' E 152°03'0 0.8
2018-Feb-20 18:30S 33°00' E 152°04'0 0.5
2018-Feb-20 18:00S 33°00' E 152°03'3 5.5
2018-Feb-20 17:30S 32°59' E 152°00'1 1.0
2018-Feb-20 17:00S 32°59' E 151°60'0 0.5
2018-Feb-20 16:30S 32°59' E 151°60'0 0.9
2018-Feb-20 16:00S 32°59' E 151°59'0 0.8
2018-Feb-20 15:30S 32°59' E 151°60'0 0.6
2018-Feb-20 15:00S 32°59' E 152°00'0 0.6
2018-Feb-20 14:30S 32°59' E 152°00'0 0.9
2018-Feb-20 14:00S 32°59' E 152°01'3 5.8
2018-Feb-20 13:30S 32°56' E 151°60'611.1
2018-Feb-20 13:00S 32°55' E 152°06'611.2
2018-Feb-20 12:30S 32°55' E 152°13'510.8
2018-Feb-20 12:00S 32°54' E 152°19'5 9.9
2018-Feb-20 11:30S 32°52' E 152°25'5 9.6
2018-Feb-20 11:00S 32°49' E 152°29'5 9.1
2018-Feb-20 10:30S 32°46' E 152°33'5 9.4
2018-Feb-20 10:00S 32°43' E 152°38'5 9.5
2018-Feb-20 09:30S 32°40' E 152°42'510.0
2018-Feb-20 09:00S 32°37' E 152°46'510.0
2018-Feb-20 08:30S 32°34' E 152°51'24010.8
2018-Feb-19 10:12S 28°41' E 153°56'411.3
2018-Feb-19 09:49S 28°36' E 153°56'411.3
2018-Feb-19 09:30S 28°33' E 153°56'611.3
2018-Feb-19 09:00S 28°27' E 153°56'611.4
2018-Feb-19 08:30S 28°21' E 153°56'611.7
2018-Feb-19 08:00S 28°15' E 153°55'611.7
2018-Feb-19 07:30S 28°10' E 153°55'611.6
2018-Feb-19 07:00S 28°04' E 153°54'611.8
2018-Feb-19 06:30S 27°58' E 153°53'612.0
2018-Feb-19 06:00S 27°52' E 153°51'611.4
2018-Feb-19 05:30S 27°47' E 153°50'611.4
2018-Feb-19 05:00S 27°41' E 153°49'711.7
2018-Feb-19 04:24S 27°34' E 153°48'511.7
2018-Feb-19 03:59S 27°29' E 153°47'511.1
2018-Feb-19 03:30S 27°24' E 153°47'510.7
2018-Feb-19 03:00S 27°19' E 153°46'1310.1
2018-Feb-19 01:46S 27°06' E 153°44'23 3.2
2018-Feb-18 18:26S 27°14' E 153°20'713.9
2018-Feb-18 17:58S 27°17' E 153°14'613.1
2018-Feb-18 17:30S 27°23' E 153°10'4 6.8
2018-Feb-18 16:56S 27°26' E 153°07'0 0.0
2018-Feb-17 17:39S 27°26' E 153°07'0 0.0
2018-Feb-17 17:09S 27°26' E 153°07'0 0.0
2018-Feb-17 16:39S 27°26' E 153°07'0 0.0
2018-Feb-17 14:36S 27°26' E 153°07'0 0.0
2018-Feb-17 14:24S 27°26' E 153°07'0 0.0
2018-Feb-16 20:26S 27°26' E 153°07'0 0.0
2018-Feb-16 19:59S 27°26' E 153°07'0 0.0
2018-Feb-16 13:49S 27°26' E 153°07'0 1.0
2018-Feb-16 13:28S 27°26' E 153°08'3 5.4
2018-Feb-16 12:51S 27°23' E 153°10'710.3
2018-Feb-16 12:13S 27°17' E 153°14'412.5
2018-Feb-16 11:53S 27°15' E 153°18'35 0.9
2018-Feb-14 20:44S 26°41' E 153°15'0 0.0
2018-Feb-14 20:29S 26°41' E 153°15'0 0.0
2018-Feb-14 19:57S 26°41' E 153°15'0 0.0
2018-Feb-14 19:21S 26°41' E 153°15'0 0.0
2018-Feb-14 18:59S 26°41' E 153°15'0 0.0
2018-Feb-14 18:26S 26°41' E 153°15'0 0.0
2018-Feb-14 17:56S 26°41' E 153°15'0 0.0
2018-Feb-14 17:24S 26°41' E 153°15'0 0.0
2018-Feb-14 16:50S 26°41' E 153°15'0 0.0
2018-Feb-14 16:23S 26°41' E 153°15'0 0.0
2018-Feb-14 05:32S 26°41' E 153°15'0 1.0
2018-Feb-14 05:16S 26°41' E 153°15'1 5.2
2018-Feb-14 05:00S 26°39' E 153°16'2710.9
2018-Feb-14 02:33S 26°14' E 153°24'110.3
2018-Feb-14 02:29S 26°13' E 153°24'611.4
2018-Feb-14 02:00S 26°08' E 153°26'33210.9
2018-Feb-12 19:32S 21°24' E 150°18'1211.7
2018-Feb-12 18:29S 21°15' E 150°09'2611.6
2018-Feb-12 16:14S 20°54' E 149°52'511.4
2018-Feb-12 15:48S 20°51' E 149°48'711.3
2018-Feb-12 15:11S 20°45' E 149°43'311.6
2018-Feb-12 14:56S 20°43' E 149°42'2511.3
2018-Feb-12 12:41S 20°24' E 149°24'511.7
2018-Feb-12 12:14S 20°19' E 149°20'  

Dump ship's entire track history